createdAt,value
2019-03-06T00:00:39.881Z,89.04
2019-03-06T00:01:39.867Z,89.39
2019-03-06T00:02:39.852Z,89.29
2019-03-06T00:03:39.868Z,89.29
2019-03-06T00:04:39.833Z,89.29
2019-03-06T00:05:39.824Z,89.39
2019-03-06T00:06:39.811Z,88.98
2019-03-06T00:07:39.797Z,89.18
2019-03-06T00:08:39.809Z,89.29
2019-03-06T00:09:39.781Z,89.81
2019-03-06T00:10:39.770Z,89.75
2019-03-06T00:11:39.770Z,90.23
2019-03-06T00:12:39.744Z,90.02
2019-03-06T00:13:39.758Z,90.12
2019-03-06T00:14:39.725Z,89.77
2019-03-06T00:15:39.736Z,89.46
2019-03-06T00:16:39.700Z,89.25
2019-03-06T00:17:39.696Z,89.04
2019-03-06T00:18:39.715Z,89.36
2019-03-06T00:19:39.668Z,88.84
2019-03-06T00:20:39.660Z,88.56
2019-03-06T00:21:39.644Z,88.62
2019-03-06T00:22:39.637Z,89.04
2019-03-06T00:23:39.648Z,88.98
2019-03-06T00:24:39.619Z,89.29
2019-03-06T00:25:39.602Z,89.81
2019-03-06T00:26:39.614Z,89.50
2019-03-06T00:27:39.578Z,89.50
2019-03-06T00:28:39.569Z,89.70
2019-03-06T00:29:39.556Z,89.95
2019-03-06T00:30:39.578Z,90.02
2019-03-06T00:31:39.561Z,90.26
2019-03-06T00:32:39.528Z,90.58
2019-03-06T00:33:39.518Z,90.64
2019-03-06T00:34:39.511Z,90.85
2019-03-06T00:35:39.517Z,90.91
2019-03-06T00:36:39.513Z,90.08
2019-03-06T00:37:39.469Z,89.87
2019-03-06T00:38:39.469Z,89.56
2019-03-06T00:39:39.451Z,89.67
2019-03-06T00:40:39.478Z,89.67
2019-03-06T00:41:39.479Z,89.67
2019-03-06T00:42:39.424Z,89.42
2019-03-06T00:43:39.416Z,89.87
2019-03-06T00:44:39.412Z,89.77
2019-03-06T00:45:39.389Z,89.94
2019-03-06T00:46:39.402Z,89.00
2019-03-06T00:47:39.365Z,88.84
2019-03-06T00:48:39.354Z,89.04
2019-03-06T00:49:39.348Z,89.04
2019-03-06T00:50:39.328Z,89.67
2019-03-06T00:51:39.346Z,89.36
2019-03-06T00:52:39.318Z,89.67
2019-03-06T00:53:39.296Z,89.87
2019-03-06T00:54:39.282Z,90.19
2019-03-06T00:55:39.298Z,90.08
2019-03-06T00:56:39.263Z,90.08
2019-03-06T00:57:39.254Z,89.46
2019-03-06T00:58:39.251Z,89.25
2019-03-06T00:59:39.232Z,89.60
2019-03-06T01:00:39.247Z,89.70
2019-03-06T01:01:39.208Z,89.70
2019-03-06T01:02:39.196Z,89.50
2019-03-06T01:03:39.187Z,90.23
2019-03-06T01:04:39.208Z,89.81
2019-03-06T01:05:39.169Z,90.23
2019-03-06T01:06:39.174Z,90.95
2019-03-06T01:07:39.142Z,91.06
2019-03-06T01:08:39.133Z,90.44
2019-03-06T01:09:39.120Z,90.23
2019-03-06T01:10:39.137Z,90.33
2019-03-06T01:11:39.125Z,90.12
2019-03-06T01:12:39.158Z,90.23
2019-03-06T01:13:39.081Z,90.26
2019-03-06T01:14:39.065Z,90.06
2019-03-06T01:15:39.054Z,90.47
2019-03-06T01:16:39.074Z,89.75
2019-03-06T01:17:39.033Z,90.00
2019-03-06T01:18:39.022Z,89.89
2019-03-06T01:19:39.008Z,89.79
2019-03-06T01:20:39.024Z,90.62
2019-03-06T01:21:38.992Z,91.25
2019-03-06T01:22:38.980Z,90.77
2019-03-06T01:23:38.994Z,91.66
2019-03-06T01:24:38.971Z,91.66
2019-03-06T01:25:38.943Z,91.46
2019-03-06T01:26:38.933Z,91.66
2019-03-06T01:27:38.926Z,91.91
2019-03-06T01:28:38.936Z,91.91
2019-03-06T01:29:38.911Z,91.71
2019-03-06T01:30:38.891Z,91.53
2019-03-06T01:31:38.908Z,91.64
2019-03-06T01:32:38.867Z,92.16
2019-03-06T01:33:38.882Z,92.68
2019-03-06T01:34:38.850Z,92.68
2019-03-06T01:35:38.846Z,92.79
2019-03-06T01:36:38.823Z,92.37
2019-03-06T01:37:38.817Z,92.58
2019-03-06T01:38:38.829Z,92.99
2019-03-06T01:39:38.793Z,93.52
2019-03-06T01:40:38.778Z,93.79
2019-03-06T01:41:38.777Z,93.79
2019-03-06T01:42:38.797Z,93.79
2019-03-06T01:43:38.798Z,93.62
2019-03-06T01:44:38.738Z,93.79
2019-03-06T01:45:38.724Z,93.99
2019-03-06T01:46:38.735Z,93.68
2019-03-06T01:47:38.702Z,93.79
2019-03-06T01:48:38.692Z,93.16
2019-03-06T01:49:38.688Z,93.37
2019-03-06T01:50:38.685Z,93.16
2019-03-06T01:51:38.683Z,93.16
2019-03-06T01:52:38.658Z,93.16
2019-03-06T01:53:38.655Z,93.16
2019-03-06T01:54:38.705Z,93.05
2019-03-06T01:55:38.618Z,93.05
2019-03-06T01:56:38.637Z,92.95
2019-03-06T01:57:38.627Z,92.54
2019-03-06T01:58:38.592Z,92.74
2019-03-06T01:59:38.571Z,92.54
2019-03-06T02:00:38.559Z,92.68
2019-03-06T02:01:38.575Z,92.47
2019-03-06T02:02:38.538Z,92.47
2019-03-06T02:03:39.005Z,92.58
2019-03-06T02:04:38.540Z,92.58
2019-03-06T02:05:38.507Z,92.58
2019-03-06T02:06:38.493Z,92.99
2019-03-06T02:07:38.488Z,93.62
2019-03-06T02:08:38.508Z,93.83
2019-03-06T02:09:38.462Z,93.73
2019-03-06T02:10:38.462Z,93.62
2019-03-06T02:11:38.439Z,93.52
2019-03-06T02:12:38.429Z,93.20
2019-03-06T02:13:38.443Z,93.20
2019-03-06T02:14:38.407Z,92.99
2019-03-06T02:15:38.394Z,93.62
2019-03-06T02:16:38.411Z,93.41
2019-03-06T02:17:38.378Z,93.41
2019-03-06T02:18:38.365Z,93.68
2019-03-06T02:19:38.404Z,94.20
2019-03-06T02:20:38.366Z,93.89
2019-03-06T02:21:38.331Z,93.27
2019-03-06T02:22:38.318Z,93.41
2019-03-06T02:23:38.314Z,93.58
2019-03-06T02:24:38.330Z,93.05
2019-03-06T02:25:38.290Z,93.16
2019-03-06T02:26:38.299Z,93.27
2019-03-06T02:27:38.264Z,93.68
2019-03-06T02:28:38.255Z,93.58
2019-03-06T02:29:38.250Z,93.89
2019-03-06T02:30:38.271Z,93.58
2019-03-06T02:31:38.229Z,93.48
2019-03-06T02:32:38.242Z,93.68
2019-03-06T02:33:38.199Z,93.37
2019-03-06T02:34:38.212Z,93.52
2019-03-06T02:35:38.183Z,93.62
2019-03-06T02:36:38.186Z,93.52
2019-03-06T02:37:38.165Z,93.31
2019-03-06T02:38:38.160Z,93.89
2019-03-06T02:39:38.136Z,94.20
2019-03-06T02:40:38.131Z,94.68
2019-03-06T02:41:38.148Z,94.16
2019-03-06T02:42:38.121Z,93.74
2019-03-06T02:43:38.102Z,93.85
2019-03-06T02:44:40.150Z,93.85
2019-03-06T02:45:38.127Z,93.64
2019-03-06T02:46:38.081Z,93.54
2019-03-06T02:47:38.059Z,93.23
2019-03-06T02:48:38.069Z,93.64
2019-03-06T02:49:38.030Z,93.43
2019-03-06T02:50:38.014Z,93.54
2019-03-06T02:51:38.013Z,94.16
2019-03-06T02:52:37.996Z,93.95
2019-03-06T02:53:38.010Z,93.99
2019-03-06T02:54:37.972Z,93.95
2019-03-06T02:55:37.963Z,93.85
2019-03-06T02:56:37.991Z,93.85
2019-03-06T02:57:37.934Z,94.26
2019-03-06T02:58:37.930Z,94.68
2019-03-06T02:59:37.930Z,94.37
2019-03-06T03:00:37.912Z,94.12
2019-03-06T03:01:37.936Z,94.06
2019-03-06T03:02:37.931Z,94.22
2019-03-06T03:03:37.871Z,94.22
2019-03-06T03:04:37.862Z,94.32
2019-03-06T03:05:37.850Z,94.64
2019-03-06T03:06:37.840Z,94.64
2019-03-06T03:07:37.862Z,94.37
2019-03-06T03:08:37.816Z,94.26
2019-03-06T03:09:37.810Z,93.39
2019-03-06T03:10:37.826Z,94.64
2019-03-06T03:11:37.785Z,94.32
2019-03-06T03:12:37.774Z,94.32
2019-03-06T03:13:37.798Z,94.12
2019-03-06T03:14:37.759Z,94.12
2019-03-06T03:15:37.738Z,94.32
2019-03-06T03:16:37.735Z,94.01
2019-03-06T03:17:37.720Z,94.32
2019-03-06T03:18:37.731Z,94.84
2019-03-06T03:19:37.695Z,94.18
2019-03-06T03:20:37.688Z,94.49
2019-03-06T03:21:37.684Z,94.07
2019-03-06T03:22:37.667Z,93.55
2019-03-06T03:23:37.678Z,93.87
2019-03-06T03:24:37.639Z,93.87
2019-03-06T03:25:37.636Z,94.07
2019-03-06T03:26:37.649Z,93.55
2019-03-06T03:27:37.638Z,93.35
2019-03-06T03:28:37.603Z,93.18
2019-03-06T03:29:37.603Z,93.97
2019-03-06T03:30:37.581Z,93.82
2019-03-06T03:31:37.593Z,93.30
2019-03-06T03:32:37.576Z,93.55
2019-03-06T03:33:37.571Z,93.66
2019-03-06T03:34:37.540Z,93.41
2019-03-06T03:35:37.552Z,92.84
2019-03-06T03:36:37.520Z,92.11
2019-03-06T03:37:37.497Z,92.43
2019-03-06T03:38:37.488Z,92.78
2019-03-06T03:39:37.490Z,92.16
2019-03-06T03:40:37.491Z,91.95
2019-03-06T03:41:37.480Z,92.47
2019-03-06T03:42:37.456Z,92.47
2019-03-06T03:43:37.435Z,92.68
2019-03-06T03:44:37.428Z,92.43
2019-03-06T03:45:37.408Z,92.63
2019-03-06T03:46:37.425Z,92.63
2019-03-06T03:47:37.393Z,92.57
2019-03-06T03:48:37.389Z,92.68
2019-03-06T03:49:37.385Z,92.36
2019-03-06T03:50:37.382Z,92.16
2019-03-06T03:51:37.371Z,93.20
2019-03-06T03:52:37.334Z,92.68
2019-03-06T03:53:37.327Z,92.68
2019-03-06T03:54:37.311Z,92.99
2019-03-06T03:55:37.299Z,92.99
2019-03-06T03:56:37.333Z,92.68
2019-03-06T03:57:37.284Z,93.20
2019-03-06T03:58:37.266Z,93.10
2019-03-06T03:59:37.267Z,92.72
2019-03-06T04:00:37.249Z,93.20
2019-03-06T04:01:37.253Z,93.20
2019-03-06T04:02:37.237Z,93.30
2019-03-06T04:03:37.259Z,93.20
2019-03-06T04:04:37.207Z,93.37
2019-03-06T04:05:37.197Z,93.30
2019-03-06T04:06:37.213Z,93.20
2019-03-06T04:07:37.178Z,93.37
2019-03-06T04:08:37.186Z,93.37
2019-03-06T04:09:37.197Z,93.41
2019-03-06T04:10:37.160Z,93.37
2019-03-06T04:11:37.214Z,93.57
2019-03-06T04:12:37.117Z,92.84
2019-03-06T04:13:37.140Z,92.63
2019-03-06T04:14:37.096Z,92.94
2019-03-06T04:15:37.089Z,92.78
2019-03-06T04:16:37.078Z,93.16
2019-03-06T04:17:37.059Z,93.72
2019-03-06T04:18:37.083Z,93.62
2019-03-06T04:19:37.045Z,92.99
2019-03-06T04:20:37.033Z,93.62
2019-03-06T04:21:37.016Z,93.20
2019-03-06T04:22:37.021Z,92.78
2019-03-06T04:23:37.034Z,93.68
2019-03-06T04:24:37.015Z,94.24
2019-03-06T04:25:36.972Z,93.82
2019-03-06T04:26:36.968Z,94.09
2019-03-06T04:27:36.956Z,94.03
2019-03-06T04:28:36.942Z,94.03
2019-03-06T04:29:36.953Z,93.72
2019-03-06T04:30:36.920Z,93.47
2019-03-06T04:31:36.903Z,93.51
2019-03-06T04:32:36.898Z,93.30
2019-03-06T04:33:36.916Z,93.93
2019-03-06T04:34:36.882Z,93.72
2019-03-06T04:35:36.870Z,93.88
2019-03-06T04:36:36.849Z,93.68
2019-03-06T04:37:36.840Z,93.57
2019-03-06T04:38:36.853Z,93.78
2019-03-06T04:39:36.827Z,93.43
2019-03-06T04:40:36.805Z,93.53
2019-03-06T04:41:36.798Z,93.43
2019-03-06T04:42:36.789Z,93.32
2019-03-06T04:43:36.799Z,92.80
2019-03-06T04:44:36.779Z,93.53
2019-03-06T04:45:36.750Z,93.01
2019-03-06T04:46:36.741Z,93.22
2019-03-06T04:47:36.729Z,93.01
2019-03-06T04:48:36.743Z,93.12
2019-03-06T04:49:36.757Z,93.12
2019-03-06T04:50:36.726Z,93.43
2019-03-06T04:51:36.708Z,93.63
2019-03-06T04:52:36.678Z,92.76
2019-03-06T04:53:36.665Z,92.76
2019-03-06T04:54:36.680Z,93.49
2019-03-06T04:55:36.647Z,92.76
2019-03-06T04:56:36.635Z,92.86
2019-03-06T04:57:36.630Z,92.24
2019-03-06T04:58:36.606Z,92.35
2019-03-06T04:59:36.642Z,92.24
2019-03-06T05:00:36.593Z,92.45
2019-03-06T05:01:36.586Z,92.35
2019-03-06T05:02:36.581Z,92.45
2019-03-06T05:03:36.576Z,92.55
2019-03-06T05:04:36.538Z,91.83
2019-03-06T05:05:36.533Z,92.66
2019-03-06T05:06:36.544Z,92.76
2019-03-06T05:07:36.512Z,92.45
2019-03-06T05:08:36.499Z,92.38
2019-03-06T05:09:36.495Z,92.28
2019-03-06T05:10:36.475Z,91.97
2019-03-06T05:11:36.490Z,92.28
2019-03-06T05:12:36.458Z,92.38
2019-03-06T05:13:36.502Z,92.80
2019-03-06T05:14:36.446Z,93.12
2019-03-06T05:15:36.428Z,92.66
2019-03-06T05:16:36.429Z,92.90
2019-03-06T05:17:36.402Z,93.01
2019-03-06T05:18:36.392Z,93.32
2019-03-06T05:19:36.373Z,93.01
2019-03-06T05:20:36.369Z,93.32
2019-03-06T05:21:36.376Z,93.22
2019-03-06T05:22:36.344Z,93.28
2019-03-06T05:23:36.358Z,92.97
2019-03-06T05:24:36.323Z,93.18
2019-03-06T05:25:36.357Z,93.28
2019-03-06T05:26:36.315Z,93.07
2019-03-06T05:27:36.292Z,93.28
2019-03-06T05:28:36.280Z,93.07
2019-03-06T05:29:36.267Z,93.49
2019-03-06T05:30:36.281Z,92.76
2019-03-06T05:31:36.241Z,92.82
2019-03-06T05:32:36.239Z,92.86
2019-03-06T05:33:36.250Z,92.86
2019-03-06T05:34:36.212Z,92.66
2019-03-06T05:35:36.203Z,92.86
2019-03-06T05:36:36.184Z,93.38
2019-03-06T05:37:36.213Z,93.38
2019-03-06T05:38:36.172Z,93.54
2019-03-06T05:39:36.155Z,93.44
2019-03-06T05:40:36.142Z,92.82
2019-03-06T05:41:36.131Z,92.51
2019-03-06T05:42:36.165Z,92.36
2019-03-06T05:43:36.120Z,91.64
2019-03-06T05:44:36.106Z,91.12
2019-03-06T05:45:36.095Z,91.28
2019-03-06T05:46:36.081Z,91.08
2019-03-06T05:47:36.095Z,91.12
2019-03-06T05:48:36.098Z,91.39
2019-03-06T05:49:36.050Z,91.28
2019-03-06T05:50:36.031Z,91.49
2019-03-06T05:51:36.025Z,91.39
2019-03-06T05:52:36.014Z,91.28
2019-03-06T05:53:36.026Z,91.18
2019-03-06T05:54:35.998Z,91.39
2019-03-06T05:55:35.990Z,90.97
2019-03-06T05:56:35.965Z,90.72
2019-03-06T05:57:35.954Z,90.56
2019-03-06T05:58:36.008Z,90.20
2019-03-06T05:59:35.940Z,90.83
2019-03-06T06:00:35.923Z,89.48
2019-03-06T06:01:35.909Z,89.58
2019-03-06T06:02:35.899Z,90.20
2019-03-06T06:03:35.916Z,90.10
2019-03-06T06:04:35.878Z,89.89
2019-03-06T06:05:35.880Z,89.79
2019-03-06T06:06:35.879Z,89.69
2019-03-06T06:07:35.848Z,89.69
2019-03-06T06:08:35.843Z,88.96
2019-03-06T06:09:35.824Z,89.38
2019-03-06T06:10:35.845Z,89.13
2019-03-06T06:11:35.828Z,88.51
2019-03-06T06:12:35.823Z,88.71
2019-03-06T06:13:35.787Z,88.71
2019-03-06T06:14:35.765Z,88.51
2019-03-06T06:15:35.760Z,88.51
2019-03-06T06:16:35.769Z,88.20
2019-03-06T06:17:35.757Z,88.09
2019-03-06T06:18:35.720Z,87.68
2019-03-06T06:19:35.721Z,88.09
2019-03-06T06:20:35.714Z,88.09
2019-03-06T06:21:35.713Z,87.43
2019-03-06T06:22:35.699Z,87.23
2019-03-06T06:23:35.672Z,87.12
2019-03-06T06:24:35.655Z,87.54
2019-03-06T06:25:35.650Z,87.95
2019-03-06T06:26:35.665Z,88.06
2019-03-06T06:27:35.633Z,87.85
2019-03-06T06:28:35.615Z,87.54
2019-03-06T06:29:35.625Z,87.74
2019-03-06T06:30:35.617Z,88.06
2019-03-06T06:31:35.581Z,87.57
2019-03-06T06:32:35.568Z,88.46
2019-03-06T06:33:35.581Z,88.46
2019-03-06T06:34:35.545Z,87.85
2019-03-06T06:35:35.552Z,87.64
2019-03-06T06:36:35.536Z,87.54
2019-03-06T06:37:35.547Z,87.23
2019-03-06T06:38:37.443Z,87.49
2019-03-06T06:39:35.517Z,87.29
2019-03-06T06:40:35.810Z,86.77
2019-03-06T06:41:35.471Z,86.77
2019-03-06T06:42:35.466Z,87.29
2019-03-06T06:43:35.444Z,87.15
2019-03-06T06:44:35.454Z,87.18
2019-03-06T06:45:35.430Z,86.36
2019-03-06T06:46:35.439Z,85.74
2019-03-06T06:47:35.419Z,85.70
2019-03-06T06:48:35.397Z,86.11
2019-03-06T06:49:35.380Z,86.01
2019-03-06T06:50:35.371Z,86.01
2019-03-06T06:51:35.387Z,85.91
2019-03-06T06:52:35.359Z,86.57
2019-03-06T06:53:35.357Z,86.21
2019-03-06T06:54:35.321Z,85.80
2019-03-06T06:55:35.317Z,86.11
2019-03-06T06:56:35.306Z,85.28
2019-03-06T06:57:35.329Z,86.01
2019-03-06T06:58:35.294Z,85.55
2019-03-06T06:59:35.279Z,85.70
2019-03-06T07:00:35.265Z,85.97
2019-03-06T07:01:35.287Z,85.14
2019-03-06T07:02:35.233Z,85.76
2019-03-06T07:03:35.233Z,85.35
2019-03-06T07:04:35.225Z,85.24
2019-03-06T07:05:35.250Z,85.14
2019-03-06T07:06:35.221Z,85.31
2019-03-06T07:07:35.202Z,84.79
2019-03-06T07:08:35.168Z,85.00
2019-03-06T07:09:35.183Z,86.03
2019-03-06T07:10:35.149Z,85.62
2019-03-06T07:11:35.137Z,85.00
2019-03-06T07:12:35.126Z,85.10
2019-03-06T07:13:35.151Z,84.69
2019-03-06T07:14:35.112Z,84.79
2019-03-06T07:15:35.095Z,85.06
2019-03-06T07:16:35.089Z,84.07
2019-03-06T07:17:35.068Z,85.06
2019-03-06T07:18:35.091Z,85.10
2019-03-06T07:19:35.048Z,84.89
2019-03-06T07:20:35.034Z,84.96
2019-03-06T07:21:35.044Z,84.48
2019-03-06T07:22:35.014Z,84.34
2019-03-06T07:23:35.034Z,84.86
2019-03-06T07:24:34.997Z,84.07
2019-03-06T07:25:34.980Z,84.96
2019-03-06T07:26:34.977Z,84.75
2019-03-06T07:27:34.979Z,84.86
2019-03-06T07:28:34.951Z,85.00
2019-03-06T07:29:34.961Z,84.44
2019-03-06T07:30:34.929Z,83.72
2019-03-06T07:31:34.921Z,84.44
2019-03-06T07:32:34.949Z,84.75
2019-03-06T07:33:34.936Z,84.96
2019-03-06T07:34:34.883Z,84.61
2019-03-06T07:35:34.896Z,84.75
2019-03-06T07:36:34.867Z,85.02
2019-03-06T07:37:34.858Z,84.30
2019-03-06T07:38:34.840Z,84.44
2019-03-06T07:39:34.834Z,83.37
2019-03-06T07:40:34.854Z,83.37
2019-03-06T07:41:34.822Z,83.48
2019-03-06T07:42:34.791Z,83.72
2019-03-06T07:43:34.814Z,83.31
2019-03-06T07:44:34.773Z,84.61
2019-03-06T07:45:34.765Z,84.92
2019-03-06T07:46:34.804Z,85.02
2019-03-06T07:47:34.745Z,84.41
2019-03-06T07:48:34.730Z,84.06
2019-03-06T07:49:44.425Z,83.37
2019-03-06T07:50:35.711Z,83.17
2019-03-06T07:51:34.724Z,83.48
2019-03-06T07:52:34.712Z,82.92
2019-03-06T07:53:34.668Z,83.37
2019-03-06T07:54:34.659Z,83.13
2019-03-06T07:55:34.646Z,83.68
2019-03-06T07:56:34.644Z,83.48
2019-03-06T07:57:34.652Z,83.17
2019-03-06T07:58:34.614Z,83.33
2019-03-06T07:59:34.604Z,83.37
2019-03-06T08:00:34.594Z,83.23
2019-03-06T08:01:34.591Z,83.23
2019-03-06T08:02:34.594Z,83.03
2019-03-06T08:03:34.592Z,83.54
2019-03-06T08:04:34.556Z,83.68
2019-03-06T08:05:34.547Z,83.17
2019-03-06T08:06:34.546Z,83.54
2019-03-06T08:07:34.548Z,83.33
2019-03-06T08:08:34.506Z,83.23
2019-03-06T08:09:34.510Z,83.64
2019-03-06T08:10:34.508Z,83.81
2019-03-06T08:11:34.473Z,82.78
2019-03-06T08:12:34.474Z,83.19
2019-03-06T08:13:34.453Z,83.36
2019-03-06T08:14:34.473Z,82.23
2019-03-06T08:15:34.449Z,81.77
2019-03-06T08:16:34.431Z,81.67
2019-03-06T08:17:34.426Z,81.16
2019-03-06T08:18:34.438Z,81.16
2019-03-06T08:19:34.381Z,80.95
2019-03-06T08:20:34.387Z,81.26
2019-03-06T08:21:34.373Z,81.23
2019-03-06T08:22:34.374Z,80.65
2019-03-06T08:23:34.343Z,81.53
2019-03-06T08:24:34.361Z,81.53
2019-03-06T08:25:34.344Z,81.12
2019-03-06T08:26:34.337Z,80.67
2019-03-06T08:27:34.320Z,79.81
2019-03-06T08:28:34.285Z,80.74
2019-03-06T08:29:34.285Z,79.98
2019-03-06T08:30:34.287Z,79.47
2019-03-06T08:31:34.278Z,79.53
2019-03-06T08:32:34.247Z,79.19
2019-03-06T08:33:34.232Z,78.47
2019-03-06T08:34:34.215Z,78.85
2019-03-06T08:35:34.204Z,78.53
2019-03-06T08:36:34.222Z,77.30
2019-03-06T08:37:34.223Z,78.19
2019-03-06T08:38:34.173Z,77.00
2019-03-06T08:39:34.164Z,76.38
2019-03-06T08:40:34.163Z,76.48
2019-03-06T08:41:34.143Z,76.28
2019-03-06T08:42:34.163Z,76.89
2019-03-06T08:43:34.120Z,77.68
2019-03-06T08:44:34.106Z,77.00
2019-03-06T08:45:34.105Z,77.40
2019-03-06T08:46:34.115Z,77.00
2019-03-06T08:47:34.089Z,77.23
2019-03-06T08:48:34.058Z,78.02
2019-03-06T08:49:34.051Z,77.71
2019-03-06T08:50:34.045Z,77.85
2019-03-06T08:51:34.051Z,78.36
2019-03-06T08:52:34.024Z,78.43
2019-03-06T08:53:34.031Z,78.36
2019-03-06T08:54:33.994Z,77.65
2019-03-06T08:55:33.993Z,79.08
2019-03-06T08:56:33.978Z,78.88
2019-03-06T08:57:33.991Z,78.92
2019-03-06T08:58:33.983Z,78.50
2019-03-06T08:59:33.945Z,78.88
2019-03-06T09:00:33.931Z,78.88
2019-03-06T09:01:33.922Z,78.78
2019-03-06T09:02:33.909Z,78.16
2019-03-06T09:03:33.922Z,78.57
2019-03-06T09:04:33.919Z,79.08
2019-03-06T09:05:33.875Z,78.36
2019-03-06T09:06:33.860Z,78.78
2019-03-06T09:07:33.852Z,77.95
2019-03-06T09:08:33.842Z,78.12
2019-03-06T09:09:33.859Z,78.64
2019-03-06T09:10:33.858Z,77.40
2019-03-06T09:11:33.808Z,77.00
2019-03-06T09:12:33.792Z,77.10
2019-03-06T09:13:33.785Z,76.58
2019-03-06T09:14:33.773Z,77.71
2019-03-06T09:15:33.790Z,76.48
2019-03-06T09:16:33.766Z,77.00
2019-03-06T09:17:33.742Z,76.07
2019-03-06T09:18:33.729Z,76.14
2019-03-06T09:19:33.725Z,76.38
2019-03-06T09:20:38.260Z,76.45
2019-03-06T09:21:34.696Z,76.75
2019-03-06T09:22:33.687Z,76.86
2019-03-06T09:23:33.677Z,76.96
2019-03-06T09:24:33.668Z,76.96
2019-03-06T09:25:33.691Z,76.86
2019-03-06T09:26:33.640Z,77.06
2019-03-06T09:27:33.627Z,76.55
2019-03-06T09:28:33.634Z,76.24
2019-03-06T09:29:33.612Z,75.52
2019-03-06T09:30:33.616Z,75.32
2019-03-06T09:31:33.588Z,75.42
2019-03-06T09:32:33.576Z,76.04
2019-03-06T09:33:33.584Z,75.21
2019-03-06T09:34:33.595Z,75.93
2019-03-06T09:35:33.571Z,76.45
2019-03-06T09:36:33.534Z,76.45
2019-03-06T09:37:33.518Z,76.14
2019-03-06T09:38:33.533Z,76.24
2019-03-06T09:39:33.493Z,74.80
2019-03-06T09:40:33.491Z,75.32
2019-03-06T09:41:33.496Z,75.21
2019-03-06T09:42:33.495Z,75.38
2019-03-06T09:43:33.453Z,75.28
2019-03-06T09:44:33.445Z,75.28
2019-03-06T09:45:33.432Z,75.28
2019-03-06T09:46:33.444Z,74.36
2019-03-06T09:47:33.442Z,74.77
2019-03-06T09:48:33.392Z,74.77
2019-03-06T09:49:33.418Z,74.57
2019-03-06T09:50:33.371Z,75.38
2019-03-06T09:51:33.359Z,76.37
2019-03-06T09:52:33.350Z,74.22
2019-03-06T09:53:33.358Z,74.94
2019-03-06T09:54:33.325Z,74.94
2019-03-06T09:55:33.325Z,74.70
2019-03-06T09:56:33.310Z,74.53
2019-03-06T09:57:33.297Z,74.19
2019-03-06T09:58:33.310Z,74.49
2019-03-06T09:59:33.296Z,74.49
2019-03-06T10:00:33.264Z,74.63
2019-03-06T10:01:33.250Z,73.68
2019-03-06T10:02:33.236Z,73.98
2019-03-06T10:03:33.286Z,73.23
2019-03-06T10:04:33.227Z,73.98
2019-03-06T10:05:33.204Z,74.77
2019-03-06T10:06:33.202Z,73.44
2019-03-06T10:07:33.186Z,74.05
2019-03-06T10:08:33.197Z,74.05
2019-03-06T10:09:33.166Z,73.54
2019-03-06T10:10:33.175Z,73.40
2019-03-06T10:11:33.139Z,73.30
2019-03-06T10:12:33.125Z,72.69
2019-03-06T10:13:33.144Z,72.34
2019-03-06T10:14:33.106Z,72.75
2019-03-06T10:15:33.094Z,72.55
2019-03-06T10:16:33.089Z,72.45
2019-03-06T10:17:33.083Z,71.32
2019-03-06T10:18:33.073Z,72.04
2019-03-06T10:19:33.053Z,71.83
2019-03-06T10:20:33.042Z,72.14
2019-03-06T10:21:33.049Z,72.24
2019-03-06T10:22:33.029Z,71.70
2019-03-06T10:23:33.018Z,72.04
2019-03-06T10:24:33.074Z,71.22
2019-03-06T10:25:32.982Z,70.88
2019-03-06T10:26:32.975Z,71.19
2019-03-06T10:27:32.965Z,70.16
2019-03-06T10:28:32.950Z,70.88
2019-03-06T10:29:32.969Z,70.37
2019-03-06T10:30:32.927Z,70.78
2019-03-06T10:31:32.923Z,70.09
2019-03-06T10:32:32.909Z,70.40
2019-03-06T10:33:32.898Z,70.67
2019-03-06T10:34:32.907Z,70.06
2019-03-06T10:35:32.898Z,69.93
2019-03-06T10:36:32.868Z,69.62
2019-03-06T10:37:32.902Z,69.21
2019-03-06T10:38:32.836Z,69.69
2019-03-06T10:39:32.830Z,68.84
2019-03-06T10:40:32.851Z,68.30
2019-03-06T10:41:32.826Z,67.07
2019-03-06T10:42:32.795Z,67.61
2019-03-06T10:43:32.789Z,68.53
2019-03-06T10:44:32.776Z,69.38
2019-03-06T10:45:35.500Z,69.18
2019-03-06T10:46:33.749Z,69.38
2019-03-06T10:47:32.749Z,68.53
2019-03-06T10:48:32.723Z,67.21
2019-03-06T10:49:32.723Z,67.18
2019-03-06T10:50:32.722Z,66.83
2019-03-06T10:51:32.698Z,67.35
2019-03-06T10:52:32.704Z,65.37
2019-03-06T10:53:41.097Z,64.87
2019-03-06T10:54:33.667Z,65.61
2019-03-06T10:55:32.672Z,64.90
2019-03-06T10:56:32.641Z,65.61
2019-03-06T10:57:32.627Z,66.77
2019-03-06T10:58:32.621Z,66.46
2019-03-06T10:59:32.600Z,66.69
2019-03-06T11:00:32.618Z,66.39
2019-03-06T11:01:32.602Z,66.18
2019-03-06T11:02:32.571Z,66.97
2019-03-06T11:03:32.585Z,66.12
2019-03-06T11:04:32.546Z,65.37
2019-03-06T11:05:32.571Z,64.39
2019-03-06T11:06:32.530Z,65.41
2019-03-06T11:07:32.520Z,65.61
2019-03-06T11:08:32.503Z,64.46
2019-03-06T11:09:32.494Z,63.71
2019-03-06T11:10:32.499Z,64.56
2019-03-06T11:11:32.498Z,64.12
2019-03-06T11:12:32.460Z,64.32
2019-03-06T11:13:32.444Z,63.54
2019-03-06T11:14:32.441Z,65.04
2019-03-06T11:15:32.430Z,64.50
2019-03-06T11:16:32.451Z,63.48
2019-03-06T11:17:32.407Z,62.77
2019-03-06T11:18:32.390Z,62.29
2019-03-06T11:19:32.399Z,63.71
2019-03-06T11:20:32.368Z,62.73
2019-03-06T11:21:32.360Z,64.73
2019-03-06T11:22:32.349Z,63.20
2019-03-06T11:23:32.367Z,62.73
2019-03-06T11:24:32.346Z,63.03
2019-03-06T11:25:32.318Z,62.21
2019-03-06T11:26:32.309Z,63.03
2019-03-06T11:27:32.295Z,63.13
2019-03-06T11:28:32.282Z,62.42
2019-03-06T11:29:32.300Z,63.61
2019-03-06T11:30:32.289Z,63.10
2019-03-06T11:31:32.256Z,62.80
2019-03-06T11:32:32.244Z,62.66
2019-03-06T11:33:32.225Z,62.08
2019-03-06T11:34:32.258Z,61.27
2019-03-06T11:35:34.088Z,62.36
2019-03-06T11:36:32.196Z,61.65
2019-03-06T11:37:32.180Z,60.93
2019-03-06T11:38:32.171Z,60.83
2019-03-06T11:39:32.192Z,60.76
2019-03-06T11:40:32.182Z,61.47
2019-03-06T11:41:32.139Z,61.98
2019-03-06T11:42:32.131Z,61.75
2019-03-06T11:43:32.120Z,62.26
2019-03-06T11:44:32.104Z,61.54
2019-03-06T11:45:32.124Z,61.44
2019-03-06T11:46:32.090Z,61.41
2019-03-06T11:47:32.095Z,60.77
2019-03-06T11:48:32.063Z,59.96
2019-03-06T11:49:32.050Z,60.68
2019-03-06T11:50:40.420Z,60.44
2019-03-06T11:51:33.023Z,59.86
2019-03-06T11:52:34.716Z,59.96
2019-03-06T11:53:32.955Z,60.54
2019-03-06T11:54:31.991Z,59.86
2019-03-06T11:55:31.987Z,60.37
2019-03-06T11:56:31.978Z,60.37
2019-03-06T11:57:33.361Z,59.89
2019-03-06T11:58:31.951Z,60.63
2019-03-06T11:59:31.935Z,60.73
2019-03-06T12:00:31.930Z,61.14
2019-03-06T12:01:31.927Z,61.00
2019-03-06T12:02:31.936Z,59.91
2019-03-06T12:03:31.894Z,61.75
2019-03-06T12:04:31.884Z,61.41
2019-03-06T12:05:31.868Z,60.60
2019-03-06T12:06:31.863Z,61.31
2019-03-06T12:07:31.894Z,60.27
2019-03-06T12:08:31.844Z,61.05
2019-03-06T12:09:31.832Z,60.21
2019-03-06T12:10:31.818Z,58.48
2019-03-06T12:11:31.831Z,59.88
2019-03-06T12:12:31.821Z,59.37
2019-03-06T12:13:31.787Z,57.74
2019-03-06T12:14:31.772Z,57.87
2019-03-06T12:15:31.769Z,58.51
2019-03-06T12:16:31.767Z,59.42
2019-03-06T12:17:31.764Z,58.20
2019-03-06T12:18:31.729Z,58.13
2019-03-06T12:19:31.720Z,60.03
2019-03-06T12:20:31.734Z,58.84
2019-03-06T12:21:31.713Z,59.73
2019-03-06T12:22:31.686Z,59.96
2019-03-06T12:23:31.681Z,60.34
2019-03-06T12:24:31.657Z,59.96
2019-03-06T12:25:31.676Z,60.14
2019-03-06T12:26:31.642Z,59.75
2019-03-06T12:27:31.630Z,60.98
2019-03-06T12:28:31.644Z,59.75
2019-03-06T12:29:31.605Z,58.67
2019-03-06T12:30:31.599Z,60.19
2019-03-06T12:31:31.585Z,58.97
2019-03-06T12:32:31.609Z,59.61
2019-03-06T12:33:31.563Z,59.78
2019-03-06T12:34:31.553Z,60.37
2019-03-06T12:35:31.538Z,58.56
2019-03-06T12:36:31.549Z,60.30
2019-03-06T12:37:31.546Z,60.09
2019-03-06T12:38:31.510Z,59.86
2019-03-06T12:39:31.491Z,58.87
2019-03-06T12:40:31.480Z,59.45
2019-03-06T12:41:31.476Z,59.45
2019-03-06T12:42:31.494Z,59.89
2019-03-06T12:43:31.447Z,60.06
2019-03-06T12:44:31.435Z,60.27
2019-03-06T12:45:31.425Z,60.30
2019-03-06T12:46:31.413Z,60.16
2019-03-06T12:47:31.431Z,59.48
2019-03-06T12:48:31.392Z,59.58
2019-03-06T12:49:31.382Z,59.48
2019-03-06T12:50:31.375Z,59.07
2019-03-06T12:51:31.359Z,58.64
2019-03-06T12:52:31.367Z,59.99